sensor_id;sensor_type;location;lat;lon;timestamp;temperature;humidity
30288;DHT22;17103;48.316;11.558;2024-01-07T00:00:59;9.80;50.20
30288;DHT22;17103;48.316;11.558;2024-01-07T00:03:25;9.70;50.00
30288;DHT22;17103;48.316;11.558;2024-01-07T00:05:50;9.60;49.90
30288;DHT22;17103;48.316;11.558;2024-01-07T00:08:17;9.50;49.70
30288;DHT22;17103;48.316;11.558;2024-01-07T00:10:42;9.50;49.80
30288;DHT22;17103;48.316;11.558;2024-01-07T00:13:08;9.40;49.60
30288;DHT22;17103;48.316;11.558;2024-01-07T00:15:33;9.30;49.70
30288;DHT22;17103;48.316;11.558;2024-01-07T00:17:59;9.30;50.00
30288;DHT22;17103;48.316;11.558;2024-01-07T00:20:24;9.20;49.70
30288;DHT22;17103;48.316;11.558;2024-01-07T00:22:50;9.20;49.70
30288;DHT22;17103;48.316;11.558;2024-01-07T00:25:15;9.10;49.90
30288;DHT22;17103;48.316;11.558;2024-01-07T00:27:41;9.10;50.00
30288;DHT22;17103;48.316;11.558;2024-01-07T00:30:07;9.00;49.80
30288;DHT22;17103;48.316;11.558;2024-01-07T00:32:32;9.00;49.70
30288;DHT22;17103;48.316;11.558;2024-01-07T00:34:58;8.90;49.80
30288;DHT22;17103;48.316;11.558;2024-01-07T00:37:23;8.90;50.10
30288;DHT22;17103;48.316;11.558;2024-01-07T00:39:49;8.90;50.20
30288;DHT22;17103;48.316;11.558;2024-01-07T00:42:14;8.80;50.20
30288;DHT22;17103;48.316;11.558;2024-01-07T00:44:40;8.80;50.40
30288;DHT22;17103;48.316;11.558;2024-01-07T00:47:05;8.80;50.60
30288;DHT22;17103;48.316;11.558;2024-01-07T00:49:31;8.80;50.50
30288;DHT22;17103;48.316;11.558;2024-01-07T00:51:56;8.80;50.80
30288;DHT22;17103;48.316;11.558;2024-01-07T00:54:23;8.80;50.80
30288;DHT22;17103;48.316;11.558;2024-01-07T00:56:49;8.80;50.90
30288;DHT22;17103;48.316;11.558;2024-01-07T00:59:15;8.80;50.60
30288;DHT22;17103;48.316;11.558;2024-01-07T01:01:41;8.80;50.60
30288;DHT22;17103;48.316;11.558;2024-01-07T01:04:06;8.90;51.00
30288;DHT22;17103;48.316;11.558;2024-01-07T01:06:34;8.90;51.20
30288;DHT22;17103;48.316;11.558;2024-01-07T01:08:59;8.90;51.20
30288;DHT22;17103;48.316;11.558;2024-01-07T01:11:26;9.00;51.30
30288;DHT22;17103;48.316;11.558;2024-01-07T01:13:51;9.00;51.30
30288;DHT22;17103;48.316;11.558;2024-01-07T01:16:17;9.10;51.30
30288;DHT22;17103;48.316;11.558;2024-01-07T01:18:42;9.10;51.30
30288;DHT22;17103;48.316;11.558;2024-01-07T01:21:09;9.20;50.90
30288;DHT22;17103;48.316;11.558;2024-01-07T01:23:34;9.20;50.50
30288;DHT22;17103;48.316;11.558;2024-01-07T01:26:01;9.20;50.40
30288;DHT22;17103;48.316;11.558;2024-01-07T01:28:27;9.20;50.40
30288;DHT22;17103;48.316;11.558;2024-01-07T01:30:52;9.20;50.50
30288;DHT22;17103;48.316;11.558;2024-01-07T01:33:18;9.20;50.20
30288;DHT22;17103;48.316;11.558;2024-01-07T01:35:43;9.20;50.00
30288;DHT22;17103;48.316;11.558;2024-01-07T01:38:09;9.20;49.90
30288;DHT22;17103;48.316;11.558;2024-01-07T01:40:35;9.10;49.90
30288;DHT22;17103;48.316;11.558;2024-01-07T01:43:00;9.20;50.20
30288;DHT22;17103;48.316;11.558;2024-01-07T01:45:26;9.10;50.30
30288;DHT22;17103;48.316;11.558;2024-01-07T01:47:52;9.20;50.40
30288;DHT22;17103;48.316;11.558;2024-01-07T01:50:17;9.20;50.50
30288;DHT22;17103;48.316;11.558;2024-01-07T01:52:44;9.20;50.60
30288;DHT22;17103;48.316;11.558;2024-01-07T01:55:10;9.30;50.90
30288;DHT22;17103;48.316;11.558;2024-01-07T01:57:35;9.30;50.90
30288;DHT22;17103;48.316;11.558;2024-01-07T02:00:03;9.30;51.00
30288;DHT22;17103;48.316;11.558;2024-01-07T02:02:30;9.40;50.30
30288;DHT22;17103;48.316;11.558;2024-01-07T02:04:57;9.40;50.30
30288;DHT22;17103;48.316;11.558;2024-01-07T02:07:24;9.40;50.40
30288;DHT22;17103;48.316;11.558;2024-01-07T02:09:49;9.40;50.30
30288;DHT22;17103;48.316;11.558;2024-01-07T02:12:15;9.50;50.20
30288;DHT22;17103;48.316;11.558;2024-01-07T02:14:40;9.50;49.90
30288;DHT22;17103;48.316;11.558;2024-01-07T02:17:06;9.50;50.00
30288;DHT22;17103;48.316;11.558;2024-01-07T02:19:32;9.50;50.80
30288;DHT22;17103;48.316;11.558;2024-01-07T02:21:58;9.50;50.30
30288;DHT22;17103;48.316;11.558;2024-01-07T02:24:24;9.50;50.20
30288;DHT22;17103;48.316;11.558;2024-01-07T02:26:50;9.60;50.20
30288;DHT22;17103;48.316;11.558;2024-01-07T02:29:15;9.60;50.30
30288;DHT22;17103;48.316;11.558;2024-01-07T02:31:41;9.70;50.40
30288;DHT22;17103;48.316;11.558;2024-01-07T02:34:08;9.70;50.40
30288;DHT22;17103;48.316;11.558;2024-01-07T02:36:34;10.60;50.10
30288;DHT22;17103;48.316;11.558;2024-01-07T02:39:01;9.70;50.10
30288;DHT22;17103;48.316;11.558;2024-01-07T02:41:26;9.80;50.10
30288;DHT22;17103;48.316;11.558;2024-01-07T02:43:53;9.80;50.00
30288;DHT22;17103;48.316;11.558;2024-01-07T02:46:19;9.90;50.20
30288;DHT22;17103;48.316;11.558;2024-01-07T02:48:45;9.90;49.70
30288;DHT22;17103;48.316;11.558;2024-01-07T02:51:11;9.90;49.70
30288;DHT22;17103;48.316;11.558;2024-01-07T02:53:37;9.90;49.90
30288;DHT22;17103;48.316;11.558;2024-01-07T02:56:02;9.90;49.80
30288;DHT22;17103;48.316;11.558;2024-01-07T02:58:29;9.90;49.80
30288;DHT22;17103;48.316;11.558;2024-01-07T03:00:54;9.90;49.70
30288;DHT22;17103;48.316;11.558;2024-01-07T03:03:20;9.90;49.70
30288;DHT22;17103;48.316;11.558;2024-01-07T03:05:46;9.90;49.80
30288;DHT22;17103;48.316;11.558;2024-01-07T03:08:11;9.90;49.80
30288;DHT22;17103;48.316;11.558;2024-01-07T03:10:38;9.90;49.80
30288;DHT22;17103;48.316;11.558;2024-01-07T03:13:04;9.90;49.60
30288;DHT22;17103;48.316;11.558;2024-01-07T03:15:30;9.80;49.40
30288;DHT22;17103;48.316;11.558;2024-01-07T03:17:56;9.80;49.60
30288;DHT22;17103;48.316;11.558;2024-01-07T03:20:22;9.80;49.70
30288;DHT22;17103;48.316;11.558;2024-01-07T03:22:48;9.80;49.80
30288;DHT22;17103;48.316;11.558;2024-01-07T03:25:14;9.90;49.90
30288;DHT22;17103;48.316;11.558;2024-01-07T03:27:40;9.90;50.00
30288;DHT22;17103;48.316;11.558;2024-01-07T03:30:05;9.90;50.70
30288;DHT22;17103;48.316;11.558;2024-01-07T03:32:31;9.90;50.00
30288;DHT22;17103;48.316;11.558;2024-01-07T03:34:58;10.00;49.30
30288;DHT22;17103;48.316;11.558;2024-01-07T03:37:23;10.00;49.00
30288;DHT22;17103;48.316;11.558;2024-01-07T03:39:49;10.00;49.00
30288;DHT22;17103;48.316;11.558;2024-01-07T03:42:14;10.10;49.10
30288;DHT22;17103;48.316;11.558;2024-01-07T03:44:40;10.10;49.00
30288;DHT22;17103;48.316;11.558;2024-01-07T03:47:06;10.10;48.90
30288;DHT22;17103;48.316;11.558;2024-01-07T03:49:31;10.20;48.90
30288;DHT22;17103;48.316;11.558;2024-01-07T03:51:57;10.20;48.10
30288;DHT22;17103;48.316;11.558;2024-01-07T03:54:22;10.10;48.20
30288;DHT22;17103;48.316;11.558;2024-01-07T03:56:49;10.10;48.10
30288;DHT22;17103;48.316;11.558;2024-01-07T03:59:16;10.10;48.00
30288;DHT22;17103;48.316;11.558;2024-01-07T04:01:42;9.90;48.80
30288;DHT22;17103;48.316;11.558;2024-01-07T04:04:07;8.60;47.90
30288;DHT22;17103;48.316;11.558;2024-01-07T04:06:33;9.90;48.90
30288;DHT22;17103;48.316;11.558;2024-01-07T04:08:58;9.80;49.00
30288;DHT22;17103;48.316;11.558;2024-01-07T04:11:24;9.80;49.10
30288;DHT22;17103;48.316;11.558;2024-01-07T04:13:49;9.80;49.40
30288;DHT22;17103;48.316;11.558;2024-01-07T04:16:18;9.70;49.30
30288;DHT22;17103;48.316;11.558;2024-01-07T04:18:44;9.80;49.20
30288;DHT22;17103;48.316;11.558;2024-01-07T04:21:11;9.80;49.30
30288;DHT22;17103;48.316;11.558;2024-01-07T04:23:37;9.80;49.30
30288;DHT22;17103;48.316;11.558;2024-01-07T04:26:03;9.80;49.00
30288;DHT22;17103;48.316;11.558;2024-01-07T04:28:29;9.80;49.00
30288;DHT22;17103;48.316;11.558;2024-01-07T04:30:55;9.50;48.80
30288;DHT22;17103;48.316;11.558;2024-01-07T04:33:20;9.70;48.80
30288;DHT22;17103;48.316;11.558;2024-01-07T04:35:46;9.70;49.10
30288;DHT22;17103;48.316;11.558;2024-01-07T04:38:12;9.70;49.10
30288;DHT22;17103;48.316;11.558;2024-01-07T04:40:41;9.70;49.00
30288;DHT22;17103;48.316;11.558;2024-01-07T04:43:07;9.70;48.60
30288;DHT22;17103;48.316;11.558;2024-01-07T04:45:32;9.60;48.70
30288;DHT22;17103;48.316;11.558;2024-01-07T04:47:58;9.60;48.80
30288;DHT22;17103;48.316;11.558;2024-01-07T04:50:23;9.60;48.80
30288;DHT22;17103;48.316;11.558;2024-01-07T04:52:49;9.60;48.80
30288;DHT22;17103;48.316;11.558;2024-01-07T04:55:14;9.60;48.90
30288;DHT22;17103;48.316;11.558;2024-01-07T04:57:40;9.60;49.00
30288;DHT22;17103;48.316;11.558;2024-01-07T05:00:06;9.60;49.10
30288;DHT22;17103;48.316;11.558;2024-01-07T05:02:31;9.60;48.90
30288;DHT22;17103;48.316;11.558;2024-01-07T05:04:57;9.60;48.90
30288;DHT22;17103;48.316;11.558;2024-01-07T05:07:23;9.60;48.80
30288;DHT22;17103;48.316;11.558;2024-01-07T05:09:48;9.60;48.80
30288;DHT22;17103;48.316;11.558;2024-01-07T05:12:14;10.20;48.50
30288;DHT22;17103;48.316;11.558;2024-01-07T05:14:40;9.60;49.00
30288;DHT22;17103;48.316;11.558;2024-01-07T05:17:06;9.60;49.20
30288;DHT22;17103;48.316;11.558;2024-01-07T05:19:31;9.60;49.20
30288;DHT22;17103;48.316;11.558;2024-01-07T05:21:58;9.70;49.30
30288;DHT22;17103;48.316;11.558;2024-01-07T05:24:23;9.80;50.00
30288;DHT22;17103;48.316;11.558;2024-01-07T05:26:49;9.80;49.50
30288;DHT22;17103;48.316;11.558;2024-01-07T05:29:14;9.90;49.60
30288;DHT22;17103;48.316;11.558;2024-01-07T05:31:40;9.90;49.60
30288;DHT22;17103;48.316;11.558;2024-01-07T05:34:06;10.00;48.70
30288;DHT22;17103;48.316;11.558;2024-01-07T05:36:31;10.10;48.90
30288;DHT22;17103;48.316;11.558;2024-01-07T05:38:57;10.20;48.70
30288;DHT22;17103;48.316;11.558;2024-01-07T05:41:22;10.20;48.60
30288;DHT22;17103;48.316;11.558;2024-01-07T05:43:48;10.30;48.70
30288;DHT22;17103;48.316;11.558;2024-01-07T05:46:13;10.40;48.70
30288;DHT22;17103;48.316;11.558;2024-01-07T05:48:46;10.40;48.50
30288;DHT22;17103;48.316;11.558;2024-01-07T05:51:13;10.50;48.30
30288;DHT22;17103;48.316;11.558;2024-01-07T05:53:39;10.50;48.30
30288;DHT22;17103;48.316;11.558;2024-01-07T05:56:04;10.50;48.10
30288;DHT22;17103;48.316;11.558;2024-01-07T05:58:30;10.50;48.20
30288;DHT22;17103;48.316;11.558;2024-01-07T06:00:56;10.60;48.40
30288;DHT22;17103;48.316;11.558;2024-01-07T06:03:21;10.60;48.10
30288;DHT22;17103;48.316;11.558;2024-01-07T06:05:47;10.70;48.10
30288;DHT22;17103;48.316;11.558;2024-01-07T06:08:12;10.70;48.00
30288;DHT22;17103;48.316;11.558;2024-01-07T06:10:38;10.80;48.70
30288;DHT22;17103;48.316;11.558;2024-01-07T06:13:04;10.80;48.10
30288;DHT22;17103;48.316;11.558;2024-01-07T06:15:30;10.80;48.10
30288;DHT22;17103;48.316;11.558;2024-01-07T06:17:55;10.80;47.80
30288;DHT22;17103;48.316;11.558;2024-01-07T06:20:21;10.90;47.70
30288;DHT22;17103;48.316;11.558;2024-01-07T06:22:46;10.90;47.60
30288;DHT22;17103;48.316;11.558;2024-01-07T06:25:13;10.90;47.40
30288;DHT22;17103;48.316;11.558;2024-01-07T06:27:38;10.90;47.40
30288;DHT22;17103;48.316;11.558;2024-01-07T06:30:05;10.90;47.20
30288;DHT22;17103;48.316;11.558;2024-01-07T06:32:30;10.90;47.20
30288;DHT22;17103;48.316;11.558;2024-01-07T06:34:57;10.90;47.10
30288;DHT22;17103;48.316;11.558;2024-01-07T06:37:23;11.00;47.50
30288;DHT22;17103;48.316;11.558;2024-01-07T06:39:58;11.00;47.40
30288;DHT22;17103;48.316;11.558;2024-01-07T06:42:24;11.00;47.20
30288;DHT22;17103;48.316;11.558;2024-01-07T06:44:50;11.00;47.60
30288;DHT22;17103;48.316;11.558;2024-01-07T06:47:18;10.60;47.20
30288;DHT22;17103;48.316;11.558;2024-01-07T06:49:44;11.00;47.70
30288;DHT22;17103;48.316;11.558;2024-01-07T06:52:10;11.00;47.60
30288;DHT22;17103;48.316;11.558;2024-01-07T06:54:36;10.00;46.70
30288;DHT22;17103;48.316;11.558;2024-01-07T06:57:01;11.00;47.20
30288;DHT22;17103;48.316;11.558;2024-01-07T06:59:27;11.10;47.30
30288;DHT22;17103;48.316;11.558;2024-01-07T07:01:53;11.10;46.90
30288;DHT22;17103;48.316;11.558;2024-01-07T07:04:20;11.10;46.80
30288;DHT22;17103;48.316;11.558;2024-01-07T07:06:47;11.10;46.90
30288;DHT22;17103;48.316;11.558;2024-01-07T07:09:12;11.10;47.20
30288;DHT22;17103;48.316;11.558;2024-01-07T07:11:38;11.10;47.00
30288;DHT22;17103;48.316;11.558;2024-01-07T07:14:03;11.20;47.00
30288;DHT22;17103;48.316;11.558;2024-01-07T07:16:29;11.20;47.00
30288;DHT22;17103;48.316;11.558;2024-01-07T07:18:54;11.20;46.90
30288;DHT22;17103;48.316;11.558;2024-01-07T07:21:20;11.30;46.90
30288;DHT22;17103;48.316;11.558;2024-01-07T07:23:46;11.30;46.80
30288;DHT22;17103;48.316;11.558;2024-01-07T07:26:11;11.30;46.80
30288;DHT22;17103;48.316;11.558;2024-01-07T07:28:39;11.40;47.00
30288;DHT22;17103;48.316;11.558;2024-01-07T07:31:04;11.40;46.60
30288;DHT22;17103;48.316;11.558;2024-01-07T07:33:30;11.40;46.50
30288;DHT22;17103;48.316;11.558;2024-01-07T07:35:55;11.40;46.40
30288;DHT22;17103;48.316;11.558;2024-01-07T07:38:21;11.40;46.40
30288;DHT22;17103;48.316;11.558;2024-01-07T07:40:46;11.40;46.50
30288;DHT22;17103;48.316;11.558;2024-01-07T07:43:18;11.40;46.30
30288;DHT22;17103;48.316;11.558;2024-01-07T07:45:44;11.40;46.40
30288;DHT22;17103;48.316;11.558;2024-01-07T07:48:10;11.40;45.90
30288;DHT22;17103;48.316;11.558;2024-01-07T07:50:35;11.40;45.40
30288;DHT22;17103;48.316;11.558;2024-01-07T07:53:01;11.30;45.30
30288;DHT22;17103;48.316;11.558;2024-01-07T07:55:26;11.10;45.00
30288;DHT22;17103;48.316;11.558;2024-01-07T07:57:52;11.00;45.30
30288;DHT22;17103;48.316;11.558;2024-01-07T08:00:18;10.90;44.90
30288;DHT22;17103;48.316;11.558;2024-01-07T08:02:43;10.70;44.50
30288;DHT22;17103;48.316;11.558;2024-01-07T08:05:09;10.60;44.50
30288;DHT22;17103;48.316;11.558;2024-01-07T08:07:34;10.50;44.90
30288;DHT22;17103;48.316;11.558;2024-01-07T08:10:00;10.30;44.80
30288;DHT22;17103;48.316;11.558;2024-01-07T08:12:25;10.20;44.50
30288;DHT22;17103;48.316;11.558;2024-01-07T08:14:52;10.10;44.90
30288;DHT22;17103;48.316;11.558;2024-01-07T08:17:17;9.90;45.60
30288;DHT22;17103;48.316;11.558;2024-01-07T08:19:43;9.80;45.60
30288;DHT22;17103;48.316;11.558;2024-01-07T08:22:09;9.70;45.60
30288;DHT22;17103;48.316;11.558;2024-01-07T08:24:37;9.60;45.50
30288;DHT22;17103;48.316;11.558;2024-01-07T08:27:03;9.50;45.50
30288;DHT22;17103;48.316;11.558;2024-01-07T08:29:29;8.60;44.90
30288;DHT22;17103;48.316;11.558;2024-01-07T08:31:55;9.20;45.60
30288;DHT22;17103;48.316;11.558;2024-01-07T08:34:20;9.10;45.70
30288;DHT22;17103;48.316;11.558;2024-01-07T08:36:46;9.10;46.00
30288;DHT22;17103;48.316;11.558;2024-01-07T08:39:14;9.00;45.90
30288;DHT22;17103;48.316;11.558;2024-01-07T08:41:39;8.90;45.90
30288;DHT22;17103;48.316;11.558;2024-01-07T08:44:05;8.90;45.90
30288;DHT22;17103;48.316;11.558;2024-01-07T08:46:33;8.80;45.80
30288;DHT22;17103;48.316;11.558;2024-01-07T08:49:01;8.70;45.90
30288;DHT22;17103;48.316;11.558;2024-01-07T08:51:26;8.70;45.90
30288;DHT22;17103;48.316;11.558;2024-01-07T08:53:54;8.60;45.90
30288;DHT22;17103;48.316;11.558;2024-01-07T08:56:22;8.50;46.10
30288;DHT22;17103;48.316;11.558;2024-01-07T08:58:48;8.50;46.20
30288;DHT22;17103;48.316;11.558;2024-01-07T09:01:14;8.40;46.10
30288;DHT22;17103;48.316;11.558;2024-01-07T09:03:39;8.40;46.20
30288;DHT22;17103;48.316;11.558;2024-01-07T09:06:05;8.30;46.20
30288;DHT22;17103;48.316;11.558;2024-01-07T09:08:31;8.30;46.30
30288;DHT22;17103;48.316;11.558;2024-01-07T09:11:04;7.90;46.00
30288;DHT22;17103;48.316;11.558;2024-01-07T09:13:31;8.20;46.50
30288;DHT22;17103;48.316;11.558;2024-01-07T09:15:57;8.10;46.90
30288;DHT22;17103;48.316;11.558;2024-01-07T09:18:23;8.10;46.30
30288;DHT22;17103;48.316;11.558;2024-01-07T09:20:48;8.00;46.30
30288;DHT22;17103;48.316;11.558;2024-01-07T09:23:15;8.00;46.40
30288;DHT22;17103;48.316;11.558;2024-01-07T09:25:41;8.00;46.50
30288;DHT22;17103;48.316;11.558;2024-01-07T09:28:06;7.90;46.40
30288;DHT22;17103;48.316;11.558;2024-01-07T09:30:34;7.90;46.50
30288;DHT22;17103;48.316;11.558;2024-01-07T09:33:00;7.90;46.50
30288;DHT22;17103;48.316;11.558;2024-01-07T09:35:26;7.80;46.70
30288;DHT22;17103;48.316;11.558;2024-01-07T09:37:54;7.80;46.70
30288;DHT22;17103;48.316;11.558;2024-01-07T09:40:24;7.80;46.80
30288;DHT22;17103;48.316;11.558;2024-01-07T09:42:50;7.80;46.70
30288;DHT22;17103;48.316;11.558;2024-01-07T09:51:36;7.90;46.90
30288;DHT22;17103;48.316;11.558;2024-01-07T09:54:03;7.80;46.90
30288;DHT22;17103;48.316;11.558;2024-01-07T09:56:36;7.80;47.00
30288;DHT22;17103;48.316;11.558;2024-01-07T09:59:04;7.80;47.00
30288;DHT22;17103;48.316;11.558;2024-01-07T10:01:29;7.70;47.00
30288;DHT22;17103;48.316;11.558;2024-01-07T10:03:56;7.70;47.00
30288;DHT22;17103;48.316;11.558;2024-01-07T10:06:22;7.80;47.00
30288;DHT22;17103;48.316;11.558;2024-01-07T10:08:48;7.70;47.30
30288;DHT22;17103;48.316;11.558;2024-01-07T10:11:19;7.70;47.30
30288;DHT22;17103;48.316;11.558;2024-01-07T10:13:49;7.80;47.10
30288;DHT22;17103;48.316;11.558;2024-01-07T10:16:17;7.70;47.10
30288;DHT22;17103;48.316;11.558;2024-01-07T10:18:43;7.80;47.20
30288;DHT22;17103;48.316;11.558;2024-01-07T10:21:08;7.80;47.10
30288;DHT22;17103;48.316;11.558;2024-01-07T10:23:34;7.80;47.40
30288;DHT22;17103;48.316;11.558;2024-01-07T10:26:00;6.50;46.30
30288;DHT22;17103;48.316;11.558;2024-01-07T10:28:27;7.70;47.40
30288;DHT22;17103;48.316;11.558;2024-01-07T10:30:53;7.70;47.20
30288;DHT22;17103;48.316;11.558;2024-01-07T10:33:19;7.70;47.70
30288;DHT22;17103;48.316;11.558;2024-01-07T10:36:00;7.70;47.30
30288;DHT22;17103;48.316;11.558;2024-01-07T10:38:26;7.70;47.20
30288;DHT22;17103;48.316;11.558;2024-01-07T10:40:52;7.80;47.40
30288;DHT22;17103;48.316;11.558;2024-01-07T10:43:19;7.80;47.40
30288;DHT22;17103;48.316;11.558;2024-01-07T10:45:47;7.80;47.40
30288;DHT22;17103;48.316;11.558;2024-01-07T10:48:14;7.80;47.40
30288;DHT22;17103;48.316;11.558;2024-01-07T10:50:43;7.80;47.40
30288;DHT22;17103;48.316;11.558;2024-01-07T10:53:10;7.80;47.40
30288;DHT22;17103;48.316;11.558;2024-01-07T10:55:39;6.80;46.70
30288;DHT22;17103;48.316;11.558;2024-01-07T10:58:07;7.80;47.40
30288;DHT22;17103;48.316;11.558;2024-01-07T11:00:33;7.90;47.50
30288;DHT22;17103;48.316;11.558;2024-01-07T11:05:27;7.90;47.50
30288;DHT22;17103;48.316;11.558;2024-01-07T11:08:00;7.90;47.40
30288;DHT22;17103;48.316;11.558;2024-01-07T11:10:31;7.90;47.30
30288;DHT22;17103;48.316;11.558;2024-01-07T11:13:10;7.80;47.20
30288;DHT22;17103;48.316;11.558;2024-01-07T11:18:19;7.80;47.50
30288;DHT22;17103;48.316;11.558;2024-01-07T11:20:48;7.80;47.20
30288;DHT22;17103;48.316;11.558;2024-01-07T11:23:35;7.80;47.20
30288;DHT22;17103;48.316;11.558;2024-01-07T11:26:13;7.80;47.20
30288;DHT22;17103;48.316;11.558;2024-01-07T11:31:11;7.80;47.20
30288;DHT22;17103;48.316;11.558;2024-01-07T11:33:41;7.70;47.20
30288;DHT22;17103;48.316;11.558;2024-01-07T11:36:07;7.70;47.10
30288;DHT22;17103;48.316;11.558;2024-01-07T11:38:36;7.60;47.50
30288;DHT22;17103;48.316;11.558;2024-01-07T11:41:05;7.60;47.00
30288;DHT22;17103;48.316;11.558;2024-01-07T11:43:31;7.60;47.10
30288;DHT22;17103;48.316;11.558;2024-01-07T11:46:03;7.50;47.30
30288;DHT22;17103;48.316;11.558;2024-01-07T11:48:29;7.60;47.10
30288;DHT22;17103;48.316;11.558;2024-01-07T11:50:54;7.60;47.50
30288;DHT22;17103;48.316;11.558;2024-01-07T11:53:20;7.50;47.30
30288;DHT22;17103;48.316;11.558;2024-01-07T11:55:46;7.50;47.20
30288;DHT22;17103;48.316;11.558;2024-01-07T11:58:13;7.50;47.20
30288;DHT22;17103;48.316;11.558;2024-01-07T12:00:40;7.50;47.20
30288;DHT22;17103;48.316;11.558;2024-01-07T12:03:06;7.40;47.10
30288;DHT22;17103;48.316;11.558;2024-01-07T12:05:31;7.40;47.10
30288;DHT22;17103;48.316;11.558;2024-01-07T12:07:57;7.40;47.20
30288;DHT22;17103;48.316;11.558;2024-01-07T12:10:23;7.40;47.20
30288;DHT22;17103;48.316;11.558;2024-01-07T12:12:49;7.70;47.40
30288;DHT22;17103;48.316;11.558;2024-01-07T12:15:16;7.30;47.20
30288;DHT22;17103;48.316;11.558;2024-01-07T12:17:42;7.40;47.30
30288;DHT22;17103;48.316;11.558;2024-01-07T12:20:08;7.30;47.60
30288;DHT22;17103;48.316;11.558;2024-01-07T12:22:42;7.30;47.10
30288;DHT22;17103;48.316;11.558;2024-01-07T12:25:08;7.30;47.10
30288;DHT22;17103;48.316;11.558;2024-01-07T12:27:40;7.30;47.10
30288;DHT22;17103;48.316;11.558;2024-01-07T12:30:06;7.30;47.10
30288;DHT22;17103;48.316;11.558;2024-01-07T12:32:32;7.30;47.30
30288;DHT22;17103;48.316;11.558;2024-01-07T12:34:58;7.30;47.10
30288;DHT22;17103;48.316;11.558;2024-01-07T12:37:27;7.30;47.10
30288;DHT22;17103;48.316;11.558;2024-01-07T12:39:54;7.30;47.20
30288;DHT22;17103;48.316;11.558;2024-01-07T12:42:21;7.30;47.20
30288;DHT22;17103;48.316;11.558;2024-01-07T12:44:47;7.30;47.10
30288;DHT22;17103;48.316;11.558;2024-01-07T12:47:14;7.30;47.10
30288;DHT22;17103;48.316;11.558;2024-01-07T12:49:39;7.30;47.10
30288;DHT22;17103;48.316;11.558;2024-01-07T12:52:05;7.20;47.00
30288;DHT22;17103;48.316;11.558;2024-01-07T12:54:34;7.20;47.00
30288;DHT22;17103;48.316;11.558;2024-01-07T12:56:59;7.20;47.00
30288;DHT22;17103;48.316;11.558;2024-01-07T12:59:26;6.30;46.30
30288;DHT22;17103;48.316;11.558;2024-01-07T13:01:52;7.20;46.90
30288;DHT22;17103;48.316;11.558;2024-01-07T13:04:18;7.20;46.90
30288;DHT22;17103;48.316;11.558;2024-01-07T13:06:44;7.10;46.90
30288;DHT22;17103;48.316;11.558;2024-01-07T13:09:10;7.10;47.00
30288;DHT22;17103;48.316;11.558;2024-01-07T13:11:36;7.10;47.10
30288;DHT22;17103;48.316;11.558;2024-01-07T13:14:02;7.10;47.10
30288;DHT22;17103;48.316;11.558;2024-01-07T13:16:28;8.20;47.90
30288;DHT22;17103;48.316;11.558;2024-01-07T13:18:54;7.10;47.10
30288;DHT22;17103;48.316;11.558;2024-01-07T13:21:19;7.10;47.10
30288;DHT22;17103;48.316;11.558;2024-01-07T13:23:45;7.10;47.10
30288;DHT22;17103;48.316;11.558;2024-01-07T13:26:13;7.10;47.10
30288;DHT22;17103;48.316;11.558;2024-01-07T13:28:39;7.10;47.10
30288;DHT22;17103;48.316;11.558;2024-01-07T13:31:05;7.10;47.10
30288;DHT22;17103;48.316;11.558;2024-01-07T13:33:36;7.10;47.10
30288;DHT22;17103;48.316;11.558;2024-01-07T13:36:05;7.10;47.00
30288;DHT22;17103;48.316;11.558;2024-01-07T13:38:35;7.10;47.00
30288;DHT22;17103;48.316;11.558;2024-01-07T13:41:01;7.10;47.00
30288;DHT22;17103;48.316;11.558;2024-01-07T13:43:26;7.00;46.90
30288;DHT22;17103;48.316;11.558;2024-01-07T13:45:54;7.00;46.90
30288;DHT22;17103;48.316;11.558;2024-01-07T13:48:22;7.00;46.80
30288;DHT22;17103;48.316;11.558;2024-01-07T13:50:47;7.00;46.90
30288;DHT22;17103;48.316;11.558;2024-01-07T13:53:15;7.00;46.90
30288;DHT22;17103;48.316;11.558;2024-01-07T13:55:40;6.90;46.80
30288;DHT22;17103;48.316;11.558;2024-01-07T13:58:06;6.90;46.80
30288;DHT22;17103;48.316;11.558;2024-01-07T14:00:31;6.90;47.10
30288;DHT22;17103;48.316;11.558;2024-01-07T14:02:57;6.90;46.70
30288;DHT22;17103;48.316;11.558;2024-01-07T14:05:23;6.80;46.70
30288;DHT22;17103;48.316;11.558;2024-01-07T14:07:48;6.80;46.70
30288;DHT22;17103;48.316;11.558;2024-01-07T14:10:14;6.80;46.70
30288;DHT22;17103;48.316;11.558;2024-01-07T14:12:39;7.10;46.90
30288;DHT22;17103;48.316;11.558;2024-01-07T14:15:06;6.70;46.60
30288;DHT22;17103;48.316;11.558;2024-01-07T14:17:33;6.70;46.60
30288;DHT22;17103;48.316;11.558;2024-01-07T14:19:59;6.70;46.60
30288;DHT22;17103;48.316;11.558;2024-01-07T14:22:24;6.60;46.60
30288;DHT22;17103;48.316;11.558;2024-01-07T14:24:50;6.60;46.60
30288;DHT22;17103;48.316;11.558;2024-01-07T14:27:15;6.60;46.70
30288;DHT22;17103;48.316;11.558;2024-01-07T14:29:42;6.60;46.70
30288;DHT22;17103;48.316;11.558;2024-01-07T14:32:07;6.60;46.70
30288;DHT22;17103;48.316;11.558;2024-01-07T14:34:33;6.60;46.70
30288;DHT22;17103;48.316;11.558;2024-01-07T14:36:59;6.60;46.70
30288;DHT22;17103;48.316;11.558;2024-01-07T14:39:25;6.60;46.70
30288;DHT22;17103;48.316;11.558;2024-01-07T14:41:51;6.60;46.70
30288;DHT22;17103;48.316;11.558;2024-01-07T14:44:17;6.60;46.80
30288;DHT22;17103;48.316;11.558;2024-01-07T14:46:42;6.60;46.80
30288;DHT22;17103;48.316;11.558;2024-01-07T14:49:08;6.60;46.80
30288;DHT22;17103;48.316;11.558;2024-01-07T14:51:34;6.50;46.70
30288;DHT22;17103;48.316;11.558;2024-01-07T14:54:02;6.50;46.70
30288;DHT22;17103;48.316;11.558;2024-01-07T14:56:28;6.50;46.70
30288;DHT22;17103;48.316;11.558;2024-01-07T14:58:54;6.50;46.70
30288;DHT22;17103;48.316;11.558;2024-01-07T15:01:19;6.50;46.70
30288;DHT22;17103;48.316;11.558;2024-01-07T15:03:45;6.60;46.80
30288;DHT22;17103;48.316;11.558;2024-01-07T15:06:10;6.50;46.80
30288;DHT22;17103;48.316;11.558;2024-01-07T15:08:37;6.50;46.80
30288;DHT22;17103;48.316;11.558;2024-01-07T15:11:02;6.50;46.80
30288;DHT22;17103;48.316;11.558;2024-01-07T15:13:29;6.50;47.00
30288;DHT22;17103;48.316;11.558;2024-01-07T15:15:55;6.50;46.80
30288;DHT22;17103;48.316;11.558;2024-01-07T15:18:23;6.50;46.80
30288;DHT22;17103;48.316;11.558;2024-01-07T15:20:49;6.50;46.80
30288;DHT22;17103;48.316;11.558;2024-01-07T15:23:16;6.50;46.80
30288;DHT22;17103;48.316;11.558;2024-01-07T15:25:42;6.50;47.40
30288;DHT22;17103;48.316;11.558;2024-01-07T15:28:08;6.40;46.70
30288;DHT22;17103;48.316;11.558;2024-01-07T15:30:34;6.50;46.80
30288;DHT22;17103;48.316;11.558;2024-01-07T15:32:59;6.40;47.70
30288;DHT22;17103;48.316;11.558;2024-01-07T15:35:25;6.40;46.80